Time;durP1;ratioP1;P1;durP2;ratioP2;P2;SDS_P1;SDS_P2;PMS_P1;PMS_P2;Temp;Humidity;BMP_temperature;BMP_pressure;BME280_temperature;BME280_humidity;BME280_pressure;Samples;Min_cycle;Max_cycle;Signal;HPM_P1;HPM_P2
2023/05/11 00:00:34;;;;;;;9.15;7.43;;;;;;;11.84;100.00;100862.78;7735674;18;20022;-67
2023/05/11 00:03:00;;;;;;;18.80;9.40;;;;;;;12.30;100.00;100945.31;7791835;18;20072;-67
2023/05/11 00:05:27;;;;;;;11.43;7.10;;;;;;;12.30;100.00;100952.38;7742602;18;20022;-67
2023/05/11 00:07:53;;;;;;;10.73;8.40;;;;;;;12.24;100.00;100950.06;7790869;18;20059;-68
2023/05/11 00:10:20;;;;;;;8.85;7.95;;;;;;;11.53;100.00;100862.69;7744761;18;20006;-68
2023/05/11 00:12:46;;;;;;;9.95;8.65;;;;;;;12.14;100.00;100949.72;7790507;18;20073;-67
2023/05/11 00:15:13;;;;;;;14.98;8.02;;;;;;;12.05;100.00;100950.25;7741998;18;20014;-67
2023/05/11 00:17:39;;;;;;;11.63;9.82;;;;;;;11.85;100.00;100948.66;7791116;18;20005;-67
2023/05/11 00:20:06;;;;;;;12.60;8.80;;;;;;;11.43;100.00;100882.50;7742802;18;20074;-67
2023/05/11 00:22:32;;;;;;;9.52;8.13;;;;;;;11.73;100.00;100944.91;7791625;18;19998;-67
2023/05/11 00:24:59;;;;;;;9.30;8.40;;;;;;;11.33;100.00;100887.38;7744597;18;19994;-66
2023/05/11 00:27:25;;;;;;;10.15;7.82;;;;;;;11.61;100.00;100951.66;7750817;18;20013;-67
2023/05/11 00:29:52;;;;;;;10.73;8.00;;;;;;;11.45;100.00;100927.94;7743444;18;20014;-67
2023/05/11 00:32:18;;;;;;;9.43;7.80;;;;;;;11.18;100.00;100885.53;7749595;18;20078;-66
2023/05/11 00:34:45;;;;;;;11.73;8.85;;;;;;;11.60;100.00;100968.34;7742593;18;20014;-66
2023/05/11 00:37:11;;;;;;;10.18;7.72;;;;;;;11.61;100.00;100963.94;7791556;18;20061;-67
2023/05/11 00:39:39;;;;;;;10.13;8.05;;;;;;;11.64;100.00;100963.78;7742488;18;20092;-67
2023/05/11 00:42:06;;;;;;;11.82;8.52;;;;;;;11.31;100.00;100905.00;7790913;18;20883;-66
2023/05/11 00:44:32;;;;;;;9.05;8.18;;;;;;;11.55;100.00;100929.16;7743962;18;20006;-67
2023/05/11 00:46:59;;;;;;;12.02;8.80;;;;;;;11.15;100.00;100862.06;7791599;18;20088;-67
2023/05/11 00:49:28;;;;;;;11.13;8.73;;;;;;;11.83;100.00;100979.44;7742678;18;20002;-67
2023/05/11 00:51:56;;;;;;;9.88;8.82;;;;;;;11.84;100.00;100974.09;7791782;18;20006;-67
2023/05/11 00:54:23;;;;;;;10.35;8.63;;;;;;;11.61;100.00;100928.00;7742808;18;20022;-67
2023/05/11 00:56:50;;;;;;;10.13;7.93;;;;;;;11.77;100.00;100956.94;7791812;18;20077;-67
2023/05/11 00:59:17;;;;;;;11.82;9.05;;;;;;;11.87;100.00;100980.97;7743391;18;19998;-67
2023/05/11 01:01:43;;;;;;;13.98;8.88;;;;;;;11.87;100.00;100994.97;7791149;18;20004;-67
2023/05/11 01:04:10;;;;;;;12.30;8.73;;;;;;;11.82;100.00;100968.06;7743402;18;20003;-67
2023/05/11 01:06:59;;;;;;;11.73;7.55;;;;;;;11.70;100.00;100955.56;7790307;18;19994;-67
2023/05/11 01:09:28;;;;;;;8.70;6.13;;;;;;;11.77;100.00;100964.84;7743026;18;20018;-66
2023/05/11 01:12:15;;;;;;;8.45;7.55;;;;;;;11.70;100.00;100958.19;7748922;18;20065;-66
2023/05/11 01:14:51;;;;;;;7.13;6.03;;;;;;;11.75;100.00;100967.53;7741432;18;20369;-66
2023/05/11 01:17:26;;;;;;;7.82;6.57;;;;;;;11.26;100.00;100891.25;7791245;18;20072;-66
2023/05/11 01:20:07;;;;;;;7.97;7.00;;;;;;;11.68;100.00;100958.25;7741138;18;20538;-67
2023/05/11 01:23:04;;;;;;;7.90;7.05;;;;;;;11.63;100.00;100955.03;7789335;18;19994;-66
2023/05/11 01:25:54;;;;;;;7.68;6.68;;;;;;;11.56;100.00;100957.13;7703126;18;19997;-66
2023/05/11 01:29:00;;;;;;;8.05;7.22;;;;;;;11.57;100.00;100958.84;7701535;18;20002;-67
2023/05/11 01:31:30;;;;;;;9.13;7.75;;;;;;;11.48;100.00;100934.81;7743607;18;20002;-66
2023/05/11 01:34:01;;;;;;;9.73;8.10;;;;;;;11.55;100.00;100952.81;7787301;18;20605;-66
2023/05/11 01:36:33;;;;;;;8.45;7.05;;;;;;;11.07;100.00;100885.28;7743032;18;20008;-66
2023/05/11 01:39:07;;;;;;;11.85;8.75;;;;;;;10.98;100.00;100871.69;7788813;18;20418;-66
2023/05/11 01:41:37;;;;;;;12.55;8.57;;;;;;;11.46;100.00;100961.16;7743462;18;20003;-66
2023/05/11 01:44:06;;;;;;;13.98;8.77;;;;;;;11.12;100.00;100905.09;7788800;18;20013;-66
2023/05/11 01:46:33;;;;;;;10.65;8.23;;;;;;;11.42;100.00;100948.28;7743251;18;19998;-66
2023/05/11 01:49:06;;;;;;;9.80;7.70;;;;;;;11.33;100.00;100944.34;7788545;18;19998;-64
2023/05/11 01:51:36;;;;;;;8.98;6.97;;;;;;;11.35;100.00;100966.13;7743356;18;20015;-66
2023/05/11 01:54:06;;;;;;;9.77;8.13;;;;;;;11.33;100.00;100960.97;7747387;18;20013;-66
2023/05/11 01:56:35;;;;;;;10.95;7.97;;;;;;;11.31;100.00;100968.06;7741764;18;20010;-66
2023/05/11 01:59:02;;;;;;;9.68;8.05;;;;;;;10.58;100.00;100841.31;7787763;18;20611;-66
2023/05/11 02:01:31;;;;;;;13.93;8.55;;;;;;;10.75;100.00;100888.59;7701994;18;20014;-66
2023/05/11 02:04:00;;;;;;;9.43;8.43;;;;;;;11.22;100.00;100970.31;7788010;18;20004;-66
2023/05/11 02:06:29;;;;;;;11.35;9.60;;;;;;;11.20;100.00;100974.78;7742292;18;20028;-66
2023/05/11 02:08:59;;;;;;;14.50;8.77;;;;;;;10.84;100.00;100921.38;7789053;18;20351;-66
2023/05/11 02:11:26;;;;;;;8.27;7.32;;;;;;;10.76;100.00;100931.44;7742196;18;20831;-66
2023/05/11 02:13:55;;;;;;;12.40;9.10;;;;;;;11.01;100.00;100967.00;7788473;18;20502;-66
2023/05/11 02:16:23;;;;;;;9.35;8.45;;;;;;;10.86;100.00;100948.41;7740269;18;20024;-67
2023/05/11 02:18:51;;;;;;;11.65;8.05;;;;;;;10.03;100.00;100816.00;7789802;18;19998;-67
2023/05/11 02:21:19;;;;;;;10.65;8.95;;;;;;;11.07;100.00;100985.91;7742008;18;19990;-66
2023/05/11 02:23:48;;;;;;;13.77;8.18;;;;;;;11.13;100.00;100984.75;7788095;18;20010;-67
2023/05/11 02:26:15;;;;;;;10.25;8.65;;;;;;;11.04;100.00;100966.81;7748265;18;20005;-67
2023/05/11 02:28:42;;;;;;;13.73;7.95;;;;;;;11.25;100.00;101002.53;7790263;18;20316;-67
2023/05/11 02:31:15;;;;;;;11.95;9.80;;;;;;;11.25;100.00;100999.91;7743262;18;20013;-66
2023/05/11 02:33:46;;;;;;;11.63;8.27;;;;;;;11.17;100.00;100999.44;7788178;18;20005;-66
2023/05/11 02:36:16;;;;;;;11.23;8.15;;;;;;;11.11;100.00;101000.59;7742403;18;20064;-66
2023/05/11 02:38:45;;;;;;;10.82;8.55;;;;;;;11.06;100.00;101005.22;7788563;18;20073;-66
2023/05/11 02:41:16;;;;;;;9.20;7.28;;;;;;;10.77;100.00;100960.22;7741757;18;20006;-66
2023/05/11 02:43:49;;;;;;;11.70;8.68;;;;;;;10.56;100.00;100935.91;7788957;18;20033;-66
2023/05/11 02:46:21;;;;;;;9.05;8.15;;;;;;;10.96;100.00;100988.22;7742555;18;20037;-67
2023/05/11 02:48:54;;;;;;;10.65;7.95;;;;;;;11.00;100.00;101005.50;7788854;18;20025;-67
2023/05/11 02:51:25;;;;;;;9.30;8.32;;;;;;;10.72;100.00;100979.75;7741630;18;20219;-66
2023/05/11 02:53:55;;;;;;;11.55;8.32;;;;;;;10.37;100.00;100909.69;7788407;18;20012;-66
2023/05/11 02:56:23;;;;;;;11.95;7.80;;;;;;;10.92;100.00;101005.88;7741867;18;20005;-66
2023/05/11 02:58:49;;;;;;;10.38;7.45;;;;;;;10.90;100.00;101017.41;7788181;18;19997;-66
2023/05/11 03:01:17;;;;;;;8.32;7.53;;;;;;;10.69;100.00;100995.66;7738929;18;20023;-66
2023/05/11 03:03:45;;;;;;;10.02;8.73;;;;;;;10.82;100.00;101017.75;7787591;18;20010;-66
2023/05/11 03:06:12;;;;;;;10.02;8.43;;;;;;;10.75;100.00;101019.00;7740730;18;20646;-66
2023/05/11 03:08:40;;;;;;;8.57;7.60;;;;;;;10.69;100.00;101014.88;7789285;18;20072;-67
2023/05/11 03:11:08;;;;;;;12.18;8.02;;;;;;;10.61;100.00;101021.44;7741042;18;19999;-67
2023/05/11 03:13:35;;;;;;;9.02;7.90;;;;;;;10.51;100.00;101010.50;7788060;18;20009;-66
2023/05/11 03:16:02;;;;;;;11.93;8.02;;;;;;;10.11;100.00;100960.69;7740531;18;20014;-66
2023/05/11 03:18:30;;;;;;;10.38;7.75;;;;;;;9.90;100.00;100933.72;7789733;18;20395;-66
2023/05/11 03:20:58;;;;;;;15.75;9.85;;;;;;;10.31;100.00;101004.41;7744000;18;20017;-66
2023/05/11 03:23:25;;;;;;;9.98;8.70;;;;;;;10.27;100.00;101002.81;7791585;18;20008;-66
2023/05/11 03:25:52;;;;;;;9.27;8.43;;;;;;;10.21;100.00;101003.09;7744578;18;20010;-66
2023/05/11 03:28:21;;;;;;;9.45;8.35;;;;;;;10.13;100.00;101003.44;7789942;18;20010;-67
2023/05/11 03:30:49;;;;;;;8.25;7.55;;;;;;;10.10;100.00;101006.22;7743617;18;20542;-66
2023/05/11 03:33:16;;;;;;;10.15;7.50;;;;;;;9.68;100.00;100949.56;7789687;18;20006;-66
2023/05/11 03:35:45;;;;;;;8.52;7.70;;;;;;;10.17;100.00;101004.16;7743856;18;20012;-66
2023/05/11 03:38:13;;;;;;;14.35;8.27;;;;;;;9.58;100.00;100896.69;7790261;18;20106;-66
2023/05/11 03:40:41;;;;;;;8.32;6.15;;;;;;;10.30;100.00;100999.22;7742189;18;20013;-66
2023/05/11 03:43:15;;;;;;;10.00;8.02;;;;;;;10.37;100.00;101012.00;7790191;18;20001;-66
2023/05/11 03:45:43;;;;;;;7.25;6.55;;;;;;;10.41;100.00;101004.84;7744950;18;20002;-66
2023/05/11 03:48:10;;;;;;;8.63;7.15;;;;;;;10.02;100.00;100931.44;7790694;18;20086;-66
2023/05/11 03:50:38;;;;;;;17.38;7.97;;;;;;;10.50;100.00;101012.28;7743961;18;20014;-66
2023/05/11 03:53:05;;;;;;;9.07;8.05;;;;;;;10.38;100.00;100979.59;7791397;18;20002;-67
2023/05/11 03:55:32;;;;;;;10.68;7.20;;;;;;;10.60;100.00;101012.69;7745276;18;20061;-66
2023/05/11 03:57:58;;;;;;;11.32;8.63;;;;;;;10.63;100.00;101015.19;7790251;18;20005;-66
2023/05/11 04:00:24;;;;;;;8.07;7.25;;;;;;;10.68;100.00;101009.69;7744589;18;20053;-66
2023/05/11 04:02:51;;;;;;;16.75;9.18;;;;;;;10.35;100.00;100952.66;7790631;18;20049;-67
2023/05/11 04:05:18;;;;;;;11.32;7.55;;;;;;;10.74;100.00;101009.41;7744613;18;20061;-66
2023/05/11 04:07:45;;;;;;;8.68;7.30;;;;;;;10.27;100.00;100944.25;7791390;18;20009;-67
2023/05/11 04:10:11;;;;;;;10.02;7.15;;;;;;;10.77;100.00;101002.25;7743053;18;20061;-69
2023/05/11 04:12:38;;;;;;;10.95;7.82;;;;;;;10.75;100.00;100998.84;7791478;18;20013;-69
2023/05/11 04:15:05;;;;;;;7.65;6.88;;;;;;;9.69;100.00;100828.06;7743858;18;20016;-68
2023/05/11 04:17:32;;;;;;;8.40;7.13;;;;;;;10.65;100.00;100971.34;7787790;18;20419;-69
2023/05/11 04:19:58;;;;;;;10.18;8.27;;;;;;;10.78;100.00;100979.44;7743237;18;20649;-69
2023/05/11 04:22:25;;;;;;;17.38;8.52;;;;;;;10.90;100.00;100991.97;7790147;18;20064;-69
2023/05/11 04:24:51;;;;;;;12.75;8.13;;;;;;;11.01;100.00;101011.63;7741379;18;20029;-69
2023/05/11 04:27:17;;;;;;;9.55;7.82;;;;;;;11.06;100.00;101005.22;7790242;18;20198;-69
2023/05/11 04:29:44;;;;;;;14.85;8.88;;;;;;;10.58;100.00;100930.53;7743949;18;20014;-68
2023/05/11 04:32:10;;;;;;;11.60;7.85;;;;;;;11.15;100.00;101014.44;7789180;18;20026;-69
2023/05/11 04:34:37;;;;;;;9.43;8.43;;;;;;;11.20;100.00;101016.81;7740964;18;20046;-68
2023/05/11 04:37:06;;;;;;;11.57;9.15;;;;;;;11.17;100.00;101013.41;7790555;18;20017;-69
2023/05/11 04:39:33;;;;;;;9.90;8.40;;;;;;;11.21;100.00;101018.53;7742361;18;20068;-69
2023/05/11 04:42:00;;;;;;;9.55;8.32;;;;;;;11.25;100.00;101012.19;7748721;18;19994;-69
2023/05/11 04:44:27;;;;;;;9.80;7.93;;;;;;;11.21;100.00;101002.78;7742969;18;20065;-69
2023/05/11 04:46:54;;;;;;;9.13;8.07;;;;;;;10.98;100.00;100970.59;7749717;18;20539;-69
2023/05/11 04:49:21;;;;;;;11.07;7.53;;;;;;;10.13;100.00;100826.91;7742472;18;20007;-69
2023/05/11 04:51:47;;;;;;;12.07;8.40;;;;;;;11.25;100.00;101004.31;7790224;18;20002;-69
2023/05/11 04:54:14;;;;;;;11.43;7.80;;;;;;;11.28;100.00;101009.41;7742312;18;20010;-70
2023/05/11 04:56:40;;;;;;;11.32;7.85;;;;;;;11.32;100.00;101013.56;7791255;18;20033;-68
2023/05/11 04:59:07;;;;;;;7.93;6.97;;;;;;;11.44;100.00;101017.38;7742418;18;19995;-69
2023/05/11 05:01:33;;;;;;;13.15;8.50;;;;;;;11.17;100.00;100955.63;7791679;18;20064;-69
2023/05/11 05:04:00;;;;;;;9.20;8.30;;;;;;;11.61;100.00;101017.38;7742902;18;20061;-69
2023/05/11 05:06:29;;;;;;;10.73;9.27;;;;;;;11.68;100.00;101015.25;7791171;18;19998;-69
2023/05/11 05:08:55;;;;;;;9.40;7.53;;;;;;;11.45;100.00;100970.00;7744064;18;20400;-69
2023/05/11 05:11:23;;;;;;;13.40;6.78;;;;;;;11.60;100.00;100981.47;7791100;18;19998;-69
2023/05/11 05:13:49;;;;;;;8.77;8.02;;;;;;;11.90;100.00;101010.59;7742482;18;20013;-69
2023/05/11 05:16:15;;;;;;;13.65;8.40;;;;;;;11.95;100.00;101008.59;7790499;18;20006;-69
2023/05/11 05:18:42;;;;;;;29.75;9.07;;;;;;;12.03;100.00;101023.97;7740696;18;20002;-69
2023/05/11 05:21:08;;;;;;;10.77;7.95;;;;;;;11.93;100.00;101007.00;7789894;18;19994;-69
2023/05/11 05:23:34;;;;;;;10.07;8.20;;;;;;;11.97;100.00;101030.41;7742672;18;19998;-69
2023/05/11 05:26:01;;;;;;;9.20;8.20;;;;;;;11.95;100.00;101018.28;7790656;18;20017;-69
2023/05/11 05:28:27;;;;;;;20.15;8.73;;;;;;;12.08;100.00;101027.19;7743291;18;19999;-69
2023/05/11 05:30:56;;;;;;;7.95;7.05;;;;;;;12.13;100.00;101029.59;7790926;18;20002;-69
2023/05/11 05:33:23;;;;;;;13.13;8.55;;;;;;;11.97;100.00;100998.00;7742092;18;20055;-69
2023/05/11 05:35:49;;;;;;;9.32;8.43;;;;;;;12.14;100.00;101032.13;7790870;18;19998;-69
2023/05/11 05:38:16;;;;;;;16.67;9.75;;;;;;;11.61;100.00;100941.13;7741653;18;20021;-69
2023/05/11 05:40:42;;;;;;;9.50;8.20;;;;;;;12.18;100.00;101043.34;7787810;18;20002;-69
2023/05/11 05:43:09;;;;;;;9.63;8.52;;;;;;;11.94;100.00;100992.88;7742833;18;19998;-69
2023/05/11 05:45:35;;;;;;;9.13;8.23;;;;;;;12.24;100.00;101044.81;7749364;18;19998;-69
2023/05/11 05:48:01;;;;;;;8.93;8.07;;;;;;;12.30;100.00;101040.06;7742590;18;20603;-69
2023/05/11 05:50:28;;;;;;;13.30;9.05;;;;;;;12.16;100.00;101008.38;7789902;18;20006;-70
2023/05/11 05:52:54;;;;;;;10.10;7.78;;;;;;;12.02;100.00;100974.91;7742828;18;20053;-69
2023/05/11 05:55:21;;;;;;;8.30;7.30;;;;;;;11.97;100.00;100966.44;7790956;18;20002;-69
2023/05/11 05:57:47;;;;;;;9.25;8.35;;;;;;;12.42;100.00;101049.06;7743079;18;20436;-69
2023/05/11 06:00:14;;;;;;;9.63;8.68;;;;;;;12.52;100.00;101046.78;7790530;18;20022;-70
2023/05/11 06:02:41;;;;;;;8.75;7.85;;;;;;;12.40;100.00;101043.03;7741946;18;19998;-69
2023/05/11 06:05:08;;;;;;;10.60;8.70;;;;;;;12.47;100.00;101040.91;7789890;18;20523;-69
2023/05/11 06:07:34;;;;;;;9.88;8.90;;;;;;;12.51;100.00;101040.69;7742168;18;19994;-69
2023/05/11 06:10:01;;;;;;;9.88;7.78;;;;;;;12.56;100.00;101043.91;7789600;18;20002;-68
2023/05/11 06:12:36;;;;;;;7.90;7.10;;;;;;;12.44;100.00;101031.41;6193473;22;20195;-71
2023/05/11 06:15:02;;;;;;;9.30;7.82;;;;;;;12.60;100.00;101038.47;6162388;23;20028;-70
2023/05/11 06:17:29;;;;;;;15.77;8.93;;;;;;;12.38;100.00;101002.78;6130652;23;20569;-70
2023/05/11 06:19:55;;;;;;;10.00;7.95;;;;;;;12.70;100.00;101045.78;6160467;23;20036;-71
2023/05/11 06:22:21;;;;;;;10.88;8.45;;;;;;;12.89;100.00;101050.00;6163021;23;20032;-68
2023/05/11 06:24:48;;;;;;;9.85;8.85;;;;;;;12.70;100.00;101018.59;6126988;23;20037;-68
2023/05/11 06:27:14;;;;;;;9.32;8.43;;;;;;;13.04;100.00;101049.16;6156250;23;20059;-68
2023/05/11 06:29:43;;;;;;;9.98;8.60;;;;;;;12.65;100.00;100967.97;6130436;23;20114;-68
2023/05/11 06:32:10;;;;;;;13.48;8.52;;;;;;;13.14;100.00;101034.50;6157733;23;20095;-68
2023/05/11 06:34:38;;;;;;;11.38;8.70;;;;;;;13.28;100.00;101027.59;6130054;23;20016;-68
2023/05/11 06:37:04;;;;;;;12.02;8.55;;;;;;;13.48;100.00;101040.47;6159181;23;20033;-68
2023/05/11 06:39:34;;;;;;;11.18;8.52;;;;;;;13.65;100.00;101038.63;6130067;23;20440;-68
2023/05/11 06:42:00;;;;;;;11.02;8.98;;;;;;;13.70;100.00;101032.16;6134606;23;20101;-69
2023/05/11 06:44:31;;;;;;;11.00;8.70;;;;;;;13.72;100.00;101027.63;6128564;23;20037;-68
2023/05/11 06:46:59;;;;;;;15.32;10.15;;;;;;;13.43;100.00;100963.47;6159384;23;20502;-69
2023/05/11 06:49:26;;;;;;;16.58;9.80;;;;;;;13.73;100.00;100973.06;6128277;23;20058;-69
2023/05/11 06:51:52;;;;;;;18.23;9.10;;;;;;;14.14;100.00;101025.94;6132469;23;20048;-69
2023/05/11 06:54:19;;;;;;;12.93;10.07;;;;;;;14.23;100.00;101023.69;6129264;23;20037;-68
2023/05/11 06:56:45;;;;;;;13.70;10.10;;;;;;;14.23;100.00;101026.31;6121391;23;20029;-68
2023/05/11 06:59:11;;;;;;;15.85;10.45;;;;;;;14.47;100.00;101018.66;6159679;23;20723;-69
2023/05/11 07:01:38;;;;;;;14.48;9.80;;;;;;;14.72;100.00;101010.88;6129147;23;20031;-68
2023/05/11 07:04:05;;;;;;;19.17;10.40;;;;;;;15.09;100.00;101020.84;6157834;23;20470;-68
2023/05/11 07:06:32;;;;;;;18.67;9.98;;;;;;;15.36;100.00;101021.66;6128301;23;20025;-68
2023/05/11 07:08:58;;;;;;;12.35;8.95;;;;;;;15.55;100.00;101016.00;6155836;23;20021;-68
2023/05/11 07:11:26;;;;;;;14.57;9.90;;;;;;;15.24;100.00;100937.88;6126825;23;20104;-68
2023/05/11 07:13:52;;;;;;;14.95;10.18;;;;;;;15.87;100.00;101010.28;6157081;23;20031;-69
2023/05/11 07:16:19;;;;;;;12.93;9.80;;;;;;;15.83;100.00;101000.88;6128653;23;20057;-69
2023/05/11 07:18:45;;;;;;;13.43;9.88;;;;;;;15.92;100.00;100994.94;6131617;23;20143;-69
2023/05/11 07:21:12;;;;;;;14.93;10.55;;;;;;;15.90;100.00;100990.72;6126349;23;20426;-68
2023/05/11 07:23:38;;;;;;;17.75;10.02;;;;;;;15.93;100.00;100999.28;6136334;23;20083;-69
2023/05/11 07:26:07;;;;;;;12.57;8.60;;;;;;;15.80;100.00;100961.41;6107212;23;20108;-69
2023/05/11 07:28:37;;;;;;;10.77;9.57;;;;;;;15.72;100.00;100979.59;6133445;23;20013;-69
2023/05/11 07:31:04;;;;;;;10.30;9.40;;;;;;;14.45;100.00;100791.66;6108449;23;20692;-68
2023/05/11 07:33:33;;;;;;;15.57;10.23;;;;;;;15.15;100.00;100964.91;6137001;23;20028;-69
2023/05/11 07:35:59;;;;;;;10.93;9.50;;;;;;;15.22;100.00;100945.06;6107180;23;20017;-69
2023/05/11 07:38:28;;;;;;;11.23;8.82;;;;;;;15.00;100.00;100958.88;6138566;23;20095;-69
2023/05/11 07:40:55;;;;;;;17.58;9.05;;;;;;;15.31;100.00;100972.66;6108065;23;20527;-69
2023/05/11 07:43:21;;;;;;;11.13;9.38;;;;;;;14.52;100.00;100844.91;6138055;23;20032;-69
2023/05/11 07:45:48;;;;;;;13.30;9.48;;;;;;;15.23;100.00;100949.38;6110237;23;20048;-69
2023/05/11 07:48:15;;;;;;;14.45;9.55;;;;;;;15.16;100.00;100933.09;6134260;23;20108;-68
2023/05/11 07:50:41;;;;;;;13.88;9.45;;;;;;;15.26;100.00;100961.56;6110596;23;20066;-68
2023/05/11 07:53:08;;;;;;;9.45;8.18;;;;;;;15.51;100.00;100961.56;6139286;23;20040;-69
2023/05/11 07:55:34;;;;;;;14.20;9.63;;;;;;;15.28;100.00;100938.53;6108529;23;20029;-70
2023/05/11 07:58:01;;;;;;;10.93;8.52;;;;;;;15.04;100.00;100962.16;6134932;23;20025;-67
2023/05/11 08:00:27;;;;;;;12.82;8.80;;;;;;;15.61;100.00;100963.59;6110601;23;20093;-69
2023/05/11 08:02:54;;;;;;;11.95;8.65;;;;;;;15.71;100.00;100895.84;6139057;23;20017;-69
2023/05/11 08:05:20;;;;;;;15.52;9.23;;;;;;;16.46;100.00;100950.56;6112023;23;20025;-69
2023/05/11 08:07:47;;;;;;;9.98;8.65;;;;;;;16.45;97.33;100902.00;6114667;23;20013;-68
2023/05/11 08:10:14;;;;;;;12.00;8.98;;;;;;;17.02;95.64;100936.72;6109842;23;20032;-68
2023/05/11 08:12:40;;;;;;;9.73;8.32;;;;;;;16.71;90.75;100918.63;6142992;23;20025;-70
2023/05/11 08:15:07;;;;;;;14.82;8.50;;;;;;;16.31;90.04;100847.41;6107445;23;20125;-68
2023/05/11 08:17:35;;;;;;;9.43;8.02;;;;;;;16.73;89.55;100871.63;6138643;23;20037;-68
2023/05/11 08:20:05;;;;;;;9.27;7.95;;;;;;;16.85;87.53;100855.81;6086037;23;20033;-70
2023/05/11 08:22:32;;;;;;;10.65;7.70;;;;;;;17.39;85.23;100864.94;6133323;23;20119;-68
2023/05/11 08:24:58;;;;;;;14.00;9.45;;;;;;;16.41;83.98;100801.69;6107373;23;20033;-69
2023/05/11 08:27:25;;;;;;;21.00;17.83;;;;;;;16.78;84.67;100858.06;6042289;23;20395;-69
2023/05/11 08:29:51;;;;;;;11.85;8.65;;;;;;;15.69;86.66;100795.41;6070221;23;20014;-69
2023/05/11 08:32:17;;;;;;;9.65;8.32;;;;;;;16.18;89.98;100870.47;6113840;23;20473;-69
2023/05/11 08:34:44;;;;;;;8.35;7.50;;;;;;;16.39;90.28;100881.25;6108631;23;20029;-69
2023/05/11 08:37:11;;;;;;;12.25;8.98;;;;;;;16.07;89.40;100879.16;6062219;23;20022;-69
2023/05/11 08:39:37;;;;;;;16.40;9.02;;;;;;;16.02;90.81;100881.31;6112242;23;20502;-69
2023/05/11 08:42:15;;;;;;;13.48;9.18;;;;;;;15.63;90.87;100854.06;6135447;23;20052;-69
2023/05/11 08:44:42;;;;;;;18.60;8.95;;;;;;;15.60;91.37;100874.63;6108892;23;20500;-69
2023/05/11 08:47:10;;;;;;;8.35;7.38;;;;;;;15.18;92.04;100815.84;6139312;23;20041;-69
2023/05/11 08:49:39;;;;;;;9.07;7.97;;;;;;;15.40;90.70;100868.91;6112917;23;20367;-69
2023/05/11 08:52:06;;;;;;;11.05;8.68;;;;;;;15.21;90.25;100855.28;6144879;23;20047;-69
2023/05/11 08:54:33;;;;;;;13.07;8.80;;;;;;;15.20;90.73;100867.66;6112282;23;20104;-69
2023/05/11 08:57:00;;;;;;;14.00;8.32;;;;;;;15.54;91.21;100862.66;6137074;23;20088;-68
2023/05/11 08:59:28;;;;;;;18.92;9.48;;;;;;;15.04;92.56;100822.91;6110506;23;20033;-69
2023/05/11 09:01:55;;;;;;;9.55;8.60;;;;;;;15.63;94.47;100850.56;6142023;23;20032;-68
2023/05/11 09:04:23;;;;;;;14.80;9.18;;;;;;;15.51;91.17;100862.88;6108049;23;20018;-69
2023/05/11 09:06:50;;;;;;;15.05;8.13;;;;;;;15.38;92.01;100873.47;6141716;23;20029;-68
2023/05/11 09:09:17;;;;;;;9.07;8.18;;;;;;;15.52;92.03;100880.44;6101857;23;20035;-69
2023/05/11 09:11:44;;;;;;;8.80;7.90;;;;;;;15.82;90.26;100853.63;6137898;23;20025;-69
2023/05/11 09:14:12;;;;;;;14.50;7.95;;;;;;;15.33;88.64;100802.41;6085097;23;20108;-68
2023/05/11 09:16:38;;;;;;;11.70;8.93;;;;;;;15.87;88.03;100850.66;6140585;23;20088;-69
2023/05/11 09:19:05;;;;;;;9.48;8.57;;;;;;;16.27;87.29;100859.19;6107282;23;20023;-68
2023/05/11 09:21:32;;;;;;;11.32;8.63;;;;;;;16.49;85.29;100841.69;6142183;23;20020;-71
2023/05/11 09:23:59;;;;;;;9.95;8.27;;;;;;;16.85;82.73;100829.31;6106427;23;20083;-68
2023/05/11 09:26:28;;;;;;;10.98;8.25;;;;;;;16.70;81.34;100802.16;6142589;23;20017;-70
2023/05/11 09:28:58;;;;;;;9.63;8.65;;;;;;;16.11;83.10;100795.91;6111472;23;20083;-70
2023/05/11 09:31:37;;;;;;;14.95;9.40;;;;;;;15.94;83.53;100806.91;6142313;23;20025;-69
2023/05/11 09:34:22;;;;;;;12.80;8.88;;;;;;;16.17;84.21;100818.44;6108063;23;20028;-69
2023/05/11 09:36:55;;;;;;;11.15;8.60;;;;;;;16.47;84.64;100825.06;6140155;23;20041;-70
2023/05/11 09:39:33;;;;;;;12.38;9.38;;;;;;;16.43;82.21;100786.53;6081403;23;20012;-70
2023/05/11 09:42:17;;;;;;;13.88;8.93;;;;;;;16.61;79.74;100773.69;6131850;23;20033;-69
2023/05/11 09:44:45;;;;;;;12.95;8.32;;;;;;;16.57;80.56;100785.50;6109152;23;20029;-69
2023/05/11 09:47:15;;;;;;;10.02;8.80;;;;;;;16.30;80.32;100773.38;6137204;23;20051;-70
2023/05/11 09:49:44;;;;;;;9.85;8.38;;;;;;;14.56;82.37;100654.47;6109457;23;20063;-70
2023/05/11 09:52:16;;;;;;;13.18;8.48;;;;;;;15.77;85.41;100804.63;6134342;23;20037;-70
2023/05/11 09:54:45;;;;;;;14.55;9.40;;;;;;;15.39;84.54;100748.19;6106698;23;20029;-69
2023/05/11 09:57:30;;;;;;;13.50;9.23;;;;;;;15.32;87.36;100807.78;6136671;23;20027;-70
2023/05/11 09:59:58;;;;;;;12.02;9.10;;;;;;;14.94;88.74;100776.94;6107045;23;20032;-70
2023/05/11 10:02:26;;;;;;;15.50;9.50;;;;;;;15.47;90.57;100834.94;6107285;23;20091;-70
2023/05/11 10:04:55;;;;;;;12.93;8.57;;;;;;;15.45;90.40;100832.41;6140324;23;20025;-69
2023/05/11 10:07:22;;;;;;;16.45;9.52;;;;;;;15.46;90.18;100844.69;6105052;23;20040;-70
2023/05/11 10:09:52;;;;;;;17.35;10.32;;;;;;;14.83;90.65;100790.88;6137111;23;20028;-69
2023/05/11 10:12:21;;;;;;;14.48;9.95;;;;;;;15.11;90.54;100840.06;6103816;23;20021;-70
2023/05/11 10:14:50;;;;;;;16.00;9.50;;;;;;;14.07;91.51;100733.47;6115267;23;20036;-70
2023/05/11 10:17:18;;;;;;;17.08;10.93;;;;;;;14.06;93.21;100755.56;6108574;23;20631;-70
2023/05/11 10:19:46;;;;;;;13.48;9.57;;;;;;;14.24;94.66;100807.13;6169525;23;20029;-70
2023/05/11 10:22:12;;;;;;;17.45;12.10;;;;;;;14.53;96.38;100858.03;6140850;23;20092;-70
2023/05/11 10:24:39;;;;;;;15.05;10.55;;;;;;;14.56;96.85;100849.06;6168517;23;20012;-71
2023/05/11 10:27:06;;;;;;;19.02;11.50;;;;;;;14.75;97.15;100852.19;6139979;23;20039;-69
2023/05/11 10:29:33;;;;;;;18.15;10.20;;;;;;;15.03;95.77;100857.38;6142290;23;20123;-69
2023/05/11 10:32:01;;;;;;;13.25;9.90;;;;;;;14.93;94.09;100825.44;6143143;23;20058;-71
2023/05/11 10:34:28;;;;;;;14.15;9.98;;;;;;;15.65;92.54;100867.19;6137013;23;20108;-70
2023/05/11 10:36:56;;;;;;;15.73;9.30;;;;;;;15.41;89.02;100844.16;6172065;23;20024;-66
2023/05/11 10:39:51;;;;;;;15.43;10.10;;;;;;;15.04;89.99;100788.56;6113225;23;20100;-71
2023/05/11 10:43:22;;;;;;;18.08;9.77;;;;;;;15.55;90.42;100851.97;6161371;23;20609;-70
2023/05/11 10:46:33;;;;;;;11.63;10.13;;;;;;;16.26;89.93;100857.50;6130695;23;20065;-71
2023/05/11 10:49:47;;;;;;;12.20;9.70;;;;;;;16.48;85.77;100821.47;6166068;23;20032;-71
2023/05/11 10:52:52;;;;;;;14.02;10.70;;;;;;;16.89;84.03;100833.41;6114118;23;20074;-71
2023/05/11 10:56:12;;;;;;;11.80;9.70;;;;;;;17.14;81.06;100811.16;6159020;23;20120;-71
2023/05/11 10:59:32;;;;;;;17.08;9.88;;;;;;;16.71;77.88;100698.66;6134420;23;20055;-71
2023/05/11 11:02:30;;;;;;;20.42;10.23;;;;;;;16.37;75.72;100598.94;6168761;23;20083;-71
2023/05/11 11:05:35;;;;;;;14.57;9.48;;;;;;;17.21;74.07;100700.13;6138749;23;20044;-71
2023/05/11 11:08:56;;;;;;;15.63;9.65;;;;;;;17.20;72.55;100663.94;6162016;23;20826;-71
2023/05/11 11:12:07;;;;;;;16.33;9.43;;;;;;;17.60;73.79;100725.25;6106878;23;20679;-71
2023/05/11 11:15:05;;;;;;;10.43;9.13;;;;;;;17.23;72.44;100663.72;6116700;23;20102;-71
2023/05/11 11:18:35;;;;;;;10.10;8.85;;;;;;;16.65;72.53;100582.56;6107114;23;20593;-70
2023/05/11 11:21:40;;;;;;;10.27;9.25;;;;;;;17.57;72.33;100676.88;6020333;23;20167;-71
2023/05/11 11:24:37;;;;;;;10.07;8.65;;;;;;;17.67;73.79;100717.63;6085917;23;20089;-71
2023/05/11 11:27:44;;;;;;;14.10;10.07;;;;;;;18.02;72.59;100706.78;6131935;23;20065;-71
2023/05/11 11:30:38;;;;;;;12.85;8.48;;;;;;;17.49;69.77;100593.44;6103799;23;20028;-71